createdAt,value
2018-10-05T05:03:55.246Z,31.50
2018-10-05T05:06:23.429Z,32.00
2018-10-05T05:08:51.601Z,31.00
2018-10-05T05:11:19.775Z,30.70
2018-10-05T05:13:48.405Z,30.10
2018-10-05T05:16:16.585Z,30.10
2018-10-05T05:18:44.745Z,30.10
2018-10-05T05:21:12.982Z,30.20
2018-10-05T05:23:41.158Z,30.10
2018-10-05T05:26:09.541Z,30.30
2018-10-05T05:28:37.775Z,29.60
2018-10-05T05:31:06.333Z,29.80
2018-10-05T05:33:34.598Z,29.70
2018-10-05T05:36:02.744Z,29.80
2018-10-05T05:38:31.097Z,29.80
2018-10-05T05:40:59.274Z,30.00
2018-10-05T05:43:27.438Z,30.00
2018-10-05T05:45:55.631Z,30.00
2018-10-05T05:48:23.801Z,30.00
2018-10-05T05:50:51.982Z,30.00
2018-10-05T05:53:20.177Z,30.30
2018-10-05T05:55:48.339Z,30.00
2018-10-05T05:58:16.501Z,30.60
2018-10-05T06:00:44.705Z,30.60
2018-10-05T06:03:12.865Z,31.00
2018-10-05T06:05:41.069Z,32.00
2018-10-05T06:08:09.255Z,32.30
2018-10-05T06:10:37.393Z,32.80
2018-10-05T06:13:05.971Z,32.70
2018-10-05T06:15:34.357Z,33.00
2018-10-05T06:18:02.486Z,32.90
2018-10-05T06:20:30.854Z,33.20
2018-10-05T06:22:59.034Z,33.40
2018-10-05T06:25:27.181Z,34.00
2018-10-05T06:27:56.291Z,33.90
2018-10-05T06:30:24.445Z,33.50
2018-10-05T06:32:52.685Z,34.20
2018-10-05T06:35:20.818Z,33.20
2018-10-05T06:37:48.969Z,33.20
2018-10-05T06:40:17.143Z,32.60
2018-10-05T06:42:45.265Z,32.70
2018-10-05T06:45:13.645Z,32.50
2018-10-05T06:47:41.971Z,33.50
2018-10-05T06:50:10.137Z,33.10
2018-10-05T06:52:38.353Z,32.90
2018-10-05T06:55:06.503Z,32.90
2018-10-05T06:57:34.652Z,33.20
2018-10-05T07:00:02.800Z,32.50
2018-10-05T07:02:30.998Z,33.00
2018-10-05T07:04:59.434Z,32.30
2018-10-05T07:07:27.590Z,33.30
2018-10-05T07:09:55.785Z,31.60
2018-10-05T07:12:23.949Z,32.10
2018-10-05T07:14:52.185Z,31.20
2018-10-05T07:17:20.421Z,31.50
2018-10-05T07:19:48.601Z,30.00
2018-10-05T07:22:16.827Z,31.40
2018-10-05T07:24:44.931Z,31.50
2018-10-05T07:27:13.125Z,36.20
2018-10-05T07:29:41.279Z,34.60
2018-10-05T07:32:09.606Z,29.90
2018-10-05T07:34:37.788Z,27.90
2018-10-05T07:37:05.975Z,28.00
2018-10-05T07:39:34.101Z,31.10
2018-10-05T07:42:02.221Z,30.40
2018-10-05T07:44:30.398Z,32.80
2018-10-05T07:46:59.199Z,36.40
2018-10-05T07:49:27.484Z,37.00
2018-10-05T07:51:55.693Z,35.50
2018-10-05T07:54:24.127Z,35.00
2018-10-05T07:56:52.306Z,35.90
2018-10-05T07:59:20.526Z,36.50
2018-10-05T08:01:48.689Z,36.50
2018-10-05T08:04:16.932Z,36.60
2018-10-05T08:06:45.377Z,36.70
2018-10-05T08:09:13.650Z,36.30
2018-10-05T08:11:41.843Z,37.00
2018-10-05T08:14:10.943Z,37.10
2018-10-05T08:16:39.556Z,37.40
2018-10-05T08:19:08.210Z,35.80
2018-10-05T08:21:36.994Z,36.30
2018-10-05T08:24:05.858Z,37.50
2018-10-05T08:26:34.140Z,35.50
2018-10-05T08:29:02.613Z,35.30
2018-10-05T08:31:31.323Z,33.90
2018-10-05T08:34:00.011Z,35.00
2018-10-05T08:36:28.574Z,35.10
2018-10-05T08:38:57.377Z,33.90
2018-10-05T08:41:26.184Z,32.80
2018-10-05T08:43:54.673Z,29.30
2018-10-05T08:46:22.846Z,30.90
2018-10-05T08:48:51.005Z,30.40
2018-10-05T08:51:19.239Z,30.00
2018-10-05T08:53:47.385Z,27.70
2018-10-05T08:56:15.537Z,27.90
2018-10-05T08:58:43.685Z,26.80
2018-10-05T09:01:11.859Z,27.20
2018-10-05T09:03:40.066Z,27.60
2018-10-05T09:06:08.237Z,27.60
2018-10-05T09:08:36.512Z,24.90
2018-10-05T09:11:04.717Z,24.90
2018-10-05T09:13:33.878Z,25.30
2018-10-05T09:16:02.029Z,27.20
2018-10-05T09:18:30.178Z,26.20
2018-10-05T09:20:58.705Z,23.50
2018-10-05T09:23:27.085Z,23.10
2018-10-05T09:25:55.265Z,23.20
2018-10-05T09:28:23.480Z,23.10
2018-10-05T09:30:51.678Z,23.10
2018-10-05T09:33:19.862Z,23.70
2018-10-05T09:35:48.056Z,24.20
2018-10-05T09:38:16.382Z,25.60
2018-10-05T09:40:44.549Z,22.90
2018-10-05T09:43:12.721Z,22.90
2018-10-05T09:45:40.936Z,22.20
2018-10-05T09:48:09.086Z,22.40
2018-10-05T09:50:37.272Z,22.90
2018-10-05T09:53:05.417Z,23.10
2018-10-05T09:55:33.614Z,24.20
2018-10-05T09:58:02.054Z,24.30
2018-10-05T10:00:35.555Z,23.80
2018-10-05T10:03:09.145Z,22.10
2018-10-05T10:05:37.565Z,19.60
2018-10-05T10:08:06.087Z,21.40
2018-10-05T10:10:34.175Z,22.30
2018-10-05T10:13:02.326Z,21.40
2018-10-05T10:15:30.470Z,20.40
2018-10-05T10:17:58.770Z,19.40
2018-10-05T10:20:26.938Z,21.20
2018-10-05T10:22:55.113Z,16.10
2018-10-05T10:25:23.289Z,19.20
2018-10-05T10:27:51.717Z,17.60
2018-10-05T10:30:19.843Z,16.70
2018-10-05T10:32:48.035Z,16.50
2018-10-05T10:35:16.276Z,16.90
2018-10-05T10:37:44.466Z,17.50
2018-10-05T10:40:12.689Z,17.50
2018-10-05T10:42:41.006Z,17.60
2018-10-05T10:45:09.523Z,18.70
2018-10-05T10:47:37.713Z,16.70
2018-10-05T10:50:05.944Z,16.90
2018-10-05T10:52:34.167Z,15.60
2018-10-05T10:55:02.656Z,15.30
2018-10-05T10:57:30.783Z,14.00
2018-10-05T10:59:58.982Z,15.60
2018-10-05T11:02:27.358Z,13.60
2018-10-05T11:04:55.558Z,14.20
2018-10-05T11:07:23.742Z,14.30
2018-10-05T11:09:51.913Z,14.00
2018-10-05T11:12:20.121Z,13.50
2018-10-05T11:14:48.290Z,13.10
2018-10-05T11:17:16.538Z,12.60
2018-10-05T11:19:44.780Z,13.40
2018-10-05T11:22:12.965Z,13.30
2018-10-05T11:24:41.137Z,12.20
2018-10-05T11:27:09.990Z,12.20
2018-10-05T11:29:38.304Z,12.80
2018-10-05T11:32:06.701Z,12.40
2018-10-05T11:34:35.073Z,15.50
2018-10-05T11:37:03.211Z,11.90
2018-10-05T11:39:31.374Z,11.80
2018-10-05T11:41:59.596Z,11.30
2018-10-05T11:44:27.789Z,10.10
2018-10-05T11:46:55.987Z,10.50
2018-10-05T11:49:24.194Z,10.90
2018-10-05T11:51:52.390Z,10.40
2018-10-05T11:54:20.598Z,12.50
2018-10-05T11:56:48.785Z,12.70
2018-10-05T11:59:17.042Z,8.70
2018-10-05T12:01:45.158Z,9.10
2018-10-05T12:04:13.378Z,8.80
2018-10-05T12:06:41.802Z,8.20
2018-10-05T12:09:10.178Z,8.20
2018-10-05T12:11:38.893Z,8.10
2018-10-05T12:14:07.217Z,9.20
2018-10-05T12:16:35.394Z,8.30
2018-10-05T12:19:03.585Z,7.40
2018-10-05T12:21:31.766Z,7.70
2018-10-05T12:23:59.905Z,7.70
2018-10-05T12:26:28.260Z,6.70
2018-10-05T12:28:56.355Z,7.40
2018-10-05T12:31:24.517Z,8.00
2018-10-05T12:33:52.682Z,8.90
2018-10-05T12:36:20.968Z,7.80
2018-10-05T12:38:49.128Z,8.10
2018-10-05T12:41:17.314Z,6.30
2018-10-05T12:43:45.475Z,6.20
2018-10-05T12:46:13.601Z,5.30
2018-10-05T12:48:41.862Z,4.60
2018-10-05T12:51:10.025Z,4.50
2018-10-05T12:53:38.179Z,4.40
2018-10-05T12:56:07.607Z,5.30
2018-10-05T12:58:35.778Z,2.80
2018-10-05T13:01:03.951Z,2.60
2018-10-05T13:03:32.090Z,2.70
2018-10-05T13:06:00.489Z,1.50
2018-10-05T13:08:28.666Z,1.00
2018-10-05T13:10:56.813Z,1.00
2018-10-05T13:13:24.941Z,1.00
2018-10-05T13:15:53.104Z,1.00
2018-10-05T13:18:22.113Z,1.00
2018-10-05T13:20:50.302Z,1.00
2018-10-05T13:23:18.531Z,1.00
2018-10-05T13:25:46.677Z,1.00
2018-10-05T13:28:14.817Z,1.00
2018-10-05T13:30:42.962Z,1.00
2018-10-05T13:33:11.110Z,1.00
2018-10-05T13:35:39.312Z,1.00
2018-10-05T13:38:07.526Z,1.00
2018-10-05T13:40:35.881Z,1.00
2018-10-05T13:43:04.040Z,1.00
2018-10-05T13:45:32.189Z,1.00
2018-10-05T13:48:00.401Z,1.00
2018-10-05T13:50:28.513Z,1.00
2018-10-05T13:52:56.670Z,1.00
2018-10-05T13:55:24.835Z,1.00
2018-10-05T13:57:53.030Z,1.00
2018-10-05T14:03:13.773Z,1.00
2018-10-05T14:05:41.977Z,1.00
2018-10-05T14:08:10.144Z,1.00
2018-10-05T14:10:38.481Z,1.00
2018-10-05T14:13:06.536Z,1.00
2018-10-05T14:15:34.712Z,1.00
2018-10-05T14:18:02.894Z,1.00
2018-10-05T14:20:31.842Z,1.00
2018-10-05T14:22:59.977Z,1.00
2018-10-05T14:25:28.220Z,1.00
2018-10-05T14:27:56.350Z,1.00
2018-10-05T14:30:24.519Z,1.00
2018-10-05T14:32:52.663Z,1.00
2018-10-05T14:35:20.833Z,1.00
2018-10-05T14:37:49.001Z,1.00
2018-10-05T14:40:17.704Z,1.00
2018-10-05T14:42:46.077Z,1.00
2018-10-05T14:45:15.649Z,1.00
2018-10-05T14:47:43.874Z,1.00
2018-10-05T14:50:12.310Z,1.00
2018-10-05T14:52:40.510Z,1.00
2018-10-05T14:55:08.657Z,1.00
2018-10-05T14:57:36.852Z,1.00
2018-10-05T15:00:05.604Z,1.00
2018-10-05T15:02:33.754Z,1.00
2018-10-05T15:05:01.938Z,1.00
2018-10-05T15:07:30.071Z,1.00
2018-10-05T15:09:58.403Z,1.00
2018-10-05T15:12:26.574Z,1.00
2018-10-05T15:14:54.765Z,1.00
2018-10-05T15:17:22.984Z,1.00
2018-10-05T15:19:51.173Z,1.00
2018-10-05T15:22:19.371Z,1.00
2018-10-05T15:24:47.531Z,1.00
2018-10-05T15:27:15.703Z,1.00
2018-10-05T15:29:43.923Z,1.00
2018-10-05T15:32:12.156Z,1.20
2018-10-05T15:34:40.342Z,1.00
2018-10-05T15:37:08.463Z,1.00
2018-10-05T15:39:36.649Z,1.00
2018-10-05T15:42:04.841Z,1.00
2018-10-05T15:44:32.996Z,1.00
2018-10-05T15:47:02.681Z,1.00
2018-10-05T15:49:31.724Z,1.00
2018-10-05T15:52:00.137Z,1.00
2018-10-05T15:54:28.475Z,1.20
2018-10-05T15:56:56.619Z,1.60
2018-10-05T15:59:25.351Z,1.90
2018-10-05T16:01:53.634Z,2.20
2018-10-05T16:04:21.817Z,2.20
2018-10-05T16:06:50.115Z,2.30
2018-10-05T16:09:18.793Z,2.20
2018-10-05T16:11:46.996Z,2.50
2018-10-05T16:14:15.220Z,2.90
2018-10-05T16:16:43.889Z,3.10
2018-10-05T16:22:04.874Z,3.60
2018-10-05T16:30:18.953Z,4.60
2018-10-05T16:32:47.152Z,4.80
2018-10-05T16:35:15.305Z,5.00
2018-10-05T16:37:43.515Z,5.20
2018-10-05T16:40:11.953Z,5.30
2018-10-05T16:42:40.137Z,5.70
2018-10-05T16:45:08.338Z,6.30
2018-10-05T16:47:36.473Z,6.80
2018-10-05T16:50:04.728Z,7.70
2018-10-05T16:52:32.825Z,7.00
2018-10-05T16:55:01.013Z,7.20
2018-10-05T16:57:29.152Z,7.20
2018-10-05T16:59:57.430Z,7.40
2018-10-05T17:02:25.892Z,7.60
2018-10-05T17:04:54.034Z,7.70
2018-10-05T17:07:22.178Z,8.10
2018-10-05T17:09:50.337Z,8.40
2018-10-05T17:12:18.510Z,8.20
2018-10-05T17:14:46.689Z,8.20
2018-10-05T17:17:14.877Z,8.60
2018-10-05T17:19:43.010Z,8.30
2018-10-05T17:22:11.210Z,8.80
2018-10-05T17:24:39.442Z,9.00
2018-10-05T17:27:07.669Z,9.10
2018-10-05T17:29:35.842Z,9.10
2018-10-05T17:32:04.010Z,9.30
2018-10-05T17:34:32.201Z,10.10
2018-10-05T17:37:00.387Z,9.70
2018-10-05T17:39:28.581Z,9.70
2018-10-05T17:41:56.834Z,9.70
2018-10-05T17:44:24.965Z,9.70
2018-10-05T17:46:53.129Z,10.70
2018-10-05T17:49:21.253Z,11.00
2018-10-05T17:51:49.441Z,11.60
2018-10-05T17:54:17.610Z,11.40
2018-10-05T17:56:45.765Z,11.40
2018-10-05T17:59:13.993Z,12.20
2018-10-05T18:01:42.266Z,12.40
2018-10-05T18:04:10.375Z,11.60
2018-10-05T18:06:38.573Z,11.40
2018-10-05T18:09:07.093Z,11.80
2018-10-05T18:11:35.317Z,11.90
2018-10-05T18:14:03.489Z,12.40
2018-10-05T18:16:31.640Z,12.20
2018-10-05T18:18:59.806Z,12.40
2018-10-05T18:21:27.950Z,12.50
2018-10-05T18:23:56.106Z,12.50
2018-10-05T18:26:24.397Z,12.90
2018-10-05T18:28:52.534Z,13.70
2018-10-05T18:31:20.733Z,14.80
2018-10-05T18:33:48.949Z,15.80
2018-10-05T18:36:17.094Z,16.40
2018-10-05T18:38:45.265Z,16.80
2018-10-05T18:41:13.516Z,17.20
2018-10-05T18:43:41.697Z,16.90
2018-10-05T18:46:10.518Z,17.00
2018-10-05T18:48:38.673Z,17.20
2018-10-05T18:51:06.936Z,17.70
2018-10-05T18:53:35.536Z,18.00
2018-10-05T18:56:13.826Z,18.30
2018-10-05T18:58:42.109Z,18.40
2018-10-05T19:01:10.304Z,18.50
2018-10-05T19:03:38.502Z,18.70
2018-10-05T19:06:06.738Z,19.00
2018-10-05T19:08:34.921Z,19.40
2018-10-05T19:11:03.076Z,19.30
2018-10-05T19:13:31.302Z,19.40
2018-10-05T19:15:59.397Z,19.40
2018-10-05T19:18:27.553Z,19.20
2018-10-05T19:20:55.704Z,19.40
2018-10-05T19:23:24.061Z,19.60
2018-10-05T19:25:52.220Z,19.90
2018-10-05T19:28:20.369Z,19.80
2018-10-05T19:30:48.549Z,19.80
2018-10-05T19:33:16.729Z,19.80
2018-10-05T19:35:44.941Z,20.10
2018-10-05T19:38:13.098Z,20.00
2018-10-05T19:40:41.470Z,20.00
2018-10-05T19:43:09.797Z,20.30
2018-10-05T19:45:37.960Z,20.30
2018-10-05T19:48:06.182Z,20.60
2018-10-05T19:50:34.373Z,20.70
2018-10-05T19:53:02.658Z,20.60
2018-10-05T19:55:30.757Z,20.50
2018-10-05T19:57:58.947Z,21.10
2018-10-05T20:00:27.133Z,21.90
2018-10-05T20:02:55.521Z,21.80
2018-10-05T20:05:24.230Z,21.60
2018-10-05T20:07:52.412Z,21.70
2018-10-05T20:10:20.586Z,21.70
2018-10-05T20:12:48.848Z,21.90
2018-10-05T20:15:17.141Z,22.40
2018-10-05T20:17:45.391Z,22.50
2018-10-05T20:20:13.549Z,22.80
2018-10-05T20:22:41.762Z,23.10
2018-10-05T20:25:09.931Z,23.20
2018-10-05T20:27:38.082Z,22.70
2018-10-05T20:30:07.774Z,22.60
2018-10-05T20:32:36.023Z,22.50
2018-10-05T20:35:04.128Z,22.90
2018-10-05T20:37:32.642Z,22.60
2018-10-05T20:40:00.618Z,24.10
2018-10-05T20:42:28.820Z,24.10
2018-10-05T20:44:56.990Z,24.80
2018-10-05T20:47:25.153Z,25.00
2018-10-05T20:49:53.381Z,25.00
2018-10-05T20:52:21.566Z,25.20
2018-10-05T20:54:49.749Z,25.70
2018-10-05T20:57:17.921Z,25.20
2018-10-05T20:59:46.118Z,25.20
2018-10-05T21:02:14.280Z,25.30
2018-10-05T21:04:42.405Z,25.20
2018-10-05T21:07:10.550Z,25.20
2018-10-05T21:09:38.717Z,25.00
2018-10-05T21:12:06.960Z,24.70
2018-10-05T21:14:35.149Z,25.50
2018-10-05T21:17:03.297Z,25.50
2018-10-05T21:19:31.469Z,25.90
2018-10-05T21:21:59.848Z,26.50
2018-10-05T21:24:28.005Z,26.20
2018-10-05T21:26:56.178Z,26.60
2018-10-05T21:29:24.298Z,25.80
2018-10-05T21:31:52.426Z,25.60
2018-10-05T21:34:20.597Z,26.10
2018-10-05T21:36:48.766Z,26.70
2018-10-05T21:39:16.950Z,26.80
2018-10-05T21:41:45.188Z,27.40
2018-10-05T21:44:13.382Z,27.40
2018-10-05T21:46:41.594Z,27.20
2018-10-05T21:49:09.749Z,26.80
2018-10-05T21:51:37.902Z,27.40
2018-10-05T21:54:06.049Z,27.30
2018-10-05T21:56:34.305Z,27.90
2018-10-05T21:59:02.470Z,27.70
2018-10-05T22:01:30.665Z,27.10
2018-10-05T22:03:58.818Z,27.50
2018-10-05T22:06:27.025Z,26.80
2018-10-05T22:08:55.185Z,26.80
2018-10-05T22:11:23.334Z,27.50
2018-10-05T22:13:51.546Z,27.10
2018-10-05T22:16:19.713Z,26.80
2018-10-05T22:18:47.861Z,26.80
2018-10-05T22:21:16.030Z,27.00
2018-10-05T22:23:44.417Z,27.70
2018-10-05T22:26:12.625Z,27.70
2018-10-05T22:28:40.812Z,27.70
2018-10-05T22:31:08.965Z,28.40
2018-10-05T22:33:37.157Z,28.30
2018-10-05T22:36:05.305Z,28.30
2018-10-05T22:38:33.507Z,28.20
2018-10-05T22:41:01.642Z,27.80
2018-10-05T22:43:29.849Z,28.10
2018-10-05T22:45:58.050Z,28.00
2018-10-05T22:48:26.241Z,28.30
2018-10-05T22:50:54.474Z,28.50
2018-10-05T22:53:22.658Z,28.40
2018-10-05T22:55:50.812Z,28.30
2018-10-05T22:58:18.957Z,28.80
2018-10-05T23:00:47.134Z,29.00
2018-10-05T23:03:15.470Z,29.70
2018-10-05T23:05:43.649Z,30.60
2018-10-05T23:08:11.805Z,30.30
2018-10-05T23:10:39.955Z,29.80
2018-10-05T23:13:08.159Z,31.10
2018-10-05T23:15:36.389Z,32.50
2018-10-05T23:18:04.545Z,31.70
2018-10-05T23:20:32.780Z,31.50
2018-10-05T23:23:00.956Z,32.80
2018-10-05T23:25:29.102Z,32.80
2018-10-05T23:27:57.278Z,33.00
2018-10-05T23:30:25.480Z,32.00
2018-10-05T23:32:53.637Z,32.10
2018-10-05T23:35:21.816Z,31.60
2018-10-05T23:37:50.018Z,31.00
2018-10-05T23:40:18.141Z,31.30
2018-10-05T23:42:46.325Z,29.70
2018-10-05T23:45:14.753Z,29.60
2018-10-05T23:47:42.929Z,29.70
2018-10-05T23:50:11.109Z,29.40
2018-10-05T23:52:42.573Z,30.20
2018-10-05T23:55:10.738Z,29.40
2018-10-05T23:57:39.713Z,29.40
